Oak Hill, WV

6:45 PM EST on February 11, 2016 (GMT -0500)
F.I.T. - Oyler Ave. | | Change Station
CLOSE
Current Station
Personal Weather Station
Location: Oak Hill, WV
Elevation: 1988 ft
Nearby Weather Stations

Elev 1988 ft 37.99 °N, 81.15 °W | Updated 16 seconds ago

Clear
Clear
17.2 °F
Feels Like 17 °F
N
0.0
Wind Variable Wind from North
Gusts 0.0 mph

Today
High -- | Low -- °F
--% Chance of Precip.
Yesterday
High -- | Low -- °F
Precip. -- in
Pressure 30.30 in
Visibility 10.0 miles
Clouds Clear
Windchill 17 °F
Dew Point 6 °F
Humidity 62%
Rainfall 0.00 in
Snow Depth Not available.
7:19 AM 5:58 PM
Waxing Crescent, 15% visible
METAR KBKW 112251Z AUTO 34008KT 10SM CLR M08/M16 A3013 RMK AO2 SLP261 T10781161
Pressure 30.30 in
Visibility 10.0 miles
Clouds Clear
Windchill 17 °F
Dew Point 6 °F
Humidity 62%
Rainfall 0.00 in
Snow Depth Not available.
7:19 AM 5:58 PM
Waxing Crescent, 15% visible
METAR KBKW 112251Z AUTO 34008KT 10SM CLR M08/M16 A3013 RMK AO2 SLP261 T10781161

10-Day Weather Forecast

Almanac

Astronomy

Feb. 11, 2016 Rise Set
Actual Time
Civil Twilight
Nautical Twilight
Astronomical Twilight
Moon
Length of Visible Light
Length of Day
Tomorrow will be .
, % of the Moon is Illuminated

Today's Extremes

State Highs State Lows

Community

WunderPhotos

Upload Photos

1,892,180 photos uploaded!

WunderBlog® & News

Nearby

Air Quality

  Air Quality AQ Index Pollutant
Not available.

Snow Depth

Station Depth Elevation

Earthquake Activity

City Distance Mag. Time & Date
Minimum magnitude displayed is 2.5.

Coastal Water Temperatures

Place Temperature

Stations

Nearby Weather Stations

Station Location Temp. Windchill Dew Point Humidity Wind Precip. Elev Updated Type
                   

Watches & Warnings

There are currently no watches in effect.